DABC/CZL METAR and TAF weather

Enter ICAO airport designator
Station Type Date Time Source
DABC METAR 2022/06/28 09:30 UTC NOAA

DABC 280930Z 35009KT 330V030 CAVOK 26/12 Q1019


Station Type Date Time Source
DABC Decoded METAR 2022/06/28 09:30 UTC NOAA

Constantine, Algeria (DABC) 36-17N 006-37E 694M
Jun 28, 2022 - 05:30 AM EDT / 2022.06.28 0930 UTC
Wind: from the N (350 degrees) at 10 MPH (9 KT) (direction variable):0
Visibility: greater than 7 mile(s):0
Temperature: 78 F (26 C)
Dew Point: 53 F (12 C)
Relative Humidity: 41%
Pressure (altimeter): 30.09 in. Hg (1019 hPa)
ob: DABC 280930Z 35009KT 330V030 CAVOK 26/12 Q1019
cycle: 9

Station Type Date Time Source
DABC TAF 2022/06/28 06:42 UTC NOAA

TAF DABC 280500Z 2806/2906 34008KT CAVOK
BECMG 2810/2812 04010KT PROB30
TEMPO 2815/2820 FEW030CB

Example: see airport list